Time;durP1;ratioP1;P1;durP2;ratioP2;P2;SDS_P1;SDS_P2;PMS_P1;PMS_P2;Temp;Humidity;BMP_temperature;BMP_pressure;BME280_temperature;BME280_humidity;BME280_pressure;Samples;Min_cycle;Max_cycle;Signal;HPM_P1;HPM_P2
2021/11/20 00:01:22;;;;;;;14.20;10.50;;;10.40;99.90;;;11.33;100.00;101197.38;5052859;28;20228;-65
2021/11/20 00:03:51;;;;;;;13.30;10.90;;;10.40;99.90;;;11.56;100.00;101201.44;5052492;28;20185;-63
2021/11/20 00:06:31;;;;;;;15.73;11.67;;;10.40;99.90;;;11.30;100.00;101192.38;5052259;28;20309;-62
2021/11/20 00:09:02;;;;;;;14.43;10.33;;;10.40;99.90;;;11.48;100.00;101193.50;5052079;28;20242;-62
2021/11/20 00:11:34;;;;;;;12.70;10.30;;;10.50;99.90;;;11.44;100.00;101194.94;5052118;28;20272;-61
2021/11/20 00:14:05;;;;;;;13.43;10.47;;;10.50;99.90;;;11.39;100.00;101194.69;5052218;28;20272;-62
2021/11/20 00:16:34;;;;;;;15.67;10.30;;;10.40;99.90;;;11.43;100.00;101197.84;5052181;28;20312;-61
2021/11/20 00:19:02;;;;;;;14.17;10.20;;;10.40;99.90;;;11.28;100.00;101206.03;5051683;28;20212;-62
2021/11/20 00:21:35;;;;;;;13.43;11.00;;;10.40;99.90;;;11.56;100.00;101211.38;5051939;28;20320;-61
2021/11/20 00:24:14;;;;;;;12.17;9.93;;;10.50;99.90;;;11.46;100.00;101211.75;5051915;28;20302;-60
2021/11/20 00:26:42;;;;;;;12.27;9.97;;;10.40;99.90;;;11.44;100.00;101204.88;5051938;28;20216;-61
2021/11/20 00:29:26;;;;;;;15.10;11.13;;;10.40;99.90;;;11.27;100.00;101198.97;5051860;28;20236;-62
2021/11/20 00:32:01;;;;;;;12.83;9.90;;;10.40;99.90;;;11.21;100.00;101205.19;5051714;28;20301;-61
2021/11/20 00:34:33;;;;;;;13.80;10.40;;;10.40;99.90;;;11.21;100.00;101197.09;5051587;28;20190;-61
2021/11/20 00:37:01;;;;;;;14.00;11.00;;;10.30;99.90;;;11.24;100.00;101196.69;5051767;28;20185;-62
2021/11/20 00:39:33;;;;;;;13.67;10.37;;;10.30;99.90;;;11.36;100.00;101194.25;5051775;28;20307;-62
2021/11/20 00:42:02;;;;;;;11.67;10.20;;;10.30;99.90;;;11.35;100.00;101188.03;5051812;28;20189;-61
2021/11/20 00:44:32;;;;;;;16.63;12.23;;;10.30;99.90;;;11.24;100.00;101190.44;5051337;28;20255;-62
2021/11/20 00:47:01;;;;;;;14.90;10.67;;;10.30;99.90;;;11.36;100.00;101180.78;5051720;28;20288;-62
2021/11/20 00:49:31;;;;;;;14.07;11.07;;;10.30;99.90;;;11.33;100.00;101179.28;5051264;28;20409;-62
2021/11/20 00:52:00;;;;;;;14.83;11.73;;;10.30;99.90;;;11.27;100.00;101182.81;5051764;28;20220;-62
2021/11/20 00:54:29;;;;;;;14.53;10.40;;;10.40;99.90;;;11.26;100.00;101167.66;5051650;28;20695;-62
2021/11/20 00:56:58;;;;;;;14.03;10.97;;;10.40;99.90;;;11.39;100.00;101172.28;5051291;28;20633;-61
2021/11/20 00:59:26;;;;;;;15.37;11.83;;;10.30;99.90;;;11.49;100.00;101176.28;5051527;28;20208;-63
2021/11/20 01:02:00;;;;;;;14.93;10.27;;;10.40;99.90;;;11.31;100.00;101169.75;5051304;28;20736;-62
2021/11/20 01:04:31;;;;;;;15.30;10.50;;;10.30;99.90;;;11.34;100.00;101175.59;5051229;28;20189;-62
2021/11/20 01:07:01;;;;;;;13.47;11.13;;;10.30;99.90;;;11.29;100.00;101166.41;5051389;28;20412;-61
2021/11/20 01:09:36;;;;;;;12.83;10.77;;;10.30;99.90;;;11.33;100.00;101179.28;5050591;28;20190;-63
2021/11/20 01:12:16;;;;;;;13.97;11.03;;;10.30;99.90;;;11.26;100.00;101175.75;5050930;28;20336;-62
2021/11/20 01:14:47;;;;;;;14.30;11.20;;;10.30;99.90;;;11.10;100.00;101186.84;5050940;28;20251;-63
2021/11/20 01:17:20;;;;;;;14.40;10.33;;;10.30;99.90;;;11.23;100.00;101173.44;5051231;28;20635;-61
2021/11/20 01:19:49;;;;;;;15.20;10.77;;;10.30;99.90;;;11.25;100.00;101178.66;5050730;28;20182;-61
2021/11/20 01:22:20;;;;;;;15.43;11.33;;;10.30;99.90;;;11.21;100.00;101167.44;5050964;28;20585;-61
2021/11/20 01:24:49;;;;;;;15.70;11.57;;;10.30;99.90;;;11.17;100.00;101168.00;5050904;28;20280;-61
2021/11/20 01:27:19;;;;;;;12.60;11.20;;;10.30;99.90;;;11.27;100.00;101163.06;5050737;28;20620;-63
2021/11/20 01:29:48;;;;;;;14.67;11.73;;;10.30;99.90;;;11.40;100.00;101166.66;5051210;28;20240;-62
2021/11/20 01:32:19;;;;;;;15.50;12.60;;;10.40;99.90;;;11.38;100.00;101159.84;5051330;28;20280;-60
2021/11/20 01:34:47;;;;;;;16.40;12.80;;;10.40;99.90;;;11.31;100.00;101153.56;5051146;28;20727;-62
2021/11/20 01:37:16;;;;;;;16.57;12.43;;;10.40;99.90;;;11.17;100.00;101144.56;5050435;28;20208;-62
2021/11/20 01:39:47;;;;;;;15.60;12.03;;;10.30;99.90;;;11.09;100.00;101150.94;5051017;28;20201;-61
2021/11/20 01:42:19;;;;;;;17.43;13.27;;;10.20;99.90;;;11.11;100.00;101158.03;5050873;28;20296;-61
2021/11/20 01:44:53;;;;;;;17.37;14.07;;;10.20;99.90;;;11.21;100.00;101153.09;5051010;28;20273;-61
2021/11/20 01:47:28;;;;;;;19.70;14.53;;;10.30;99.90;;;11.20;100.00;101146.88;5050582;28;20282;-65
2021/11/20 01:50:07;;;;;;;18.77;14.27;;;10.30;99.90;;;11.29;100.00;101152.94;5050509;28;20271;-62
2021/11/20 01:52:54;;;;;;;16.70;13.80;;;10.30;99.90;;;11.27;100.00;101146.88;5050619;28;20247;-62
2021/11/20 01:55:40;;;;;;;18.90;13.40;;;10.30;99.90;;;11.36;100.00;101143.84;5050822;28;20276;-61
2021/11/20 01:58:22;;;;;;;16.63;13.23;;;10.30;99.90;;;11.17;100.00;101149.97;5050318;28;20217;-62
2021/11/20 02:01:10;;;;;;;17.27;13.20;;;10.30;99.90;;;11.31;100.00;101150.88;5050922;28;20202;-61
2021/11/20 02:03:48;;;;;;;17.97;13.77;;;10.30;99.90;;;11.41;100.00;101152.16;5050569;28;20184;-61
2021/11/20 02:06:25;;;;;;;19.03;13.43;;;10.30;99.90;;;11.48;100.00;101152.19;5050352;28;20659;-61
2021/11/20 02:09:01;;;;;;;19.00;13.77;;;10.40;99.90;;;11.40;100.00;101150.50;5050496;28;20293;-61
2021/11/20 02:11:37;;;;;;;18.73;13.50;;;10.40;99.90;;;11.29;100.00;101142.13;5050517;28;20283;-61
2021/11/20 02:14:09;;;;;;;18.33;13.77;;;10.30;99.90;;;11.26;100.00;101150.63;5050924;28;20189;-60
2021/11/20 02:16:43;;;;;;;20.83;14.83;;;10.40;99.90;;;11.28;100.00;101146.69;5050675;28;20221;-61
2021/11/20 02:19:19;;;;;;;19.20;14.13;;;10.30;99.90;;;11.25;100.00;101135.50;5050652;28;20632;-62
2021/11/20 02:21:54;;;;;;;19.47;14.47;;;10.30;99.90;;;11.33;100.00;101129.94;5053892;28;20292;-62
2021/11/20 02:24:22;;;;;;;21.03;13.87;;;10.30;99.90;;;11.37;100.00;101140.09;5054194;28;20275;-61
2021/11/20 02:26:50;;;;;;;18.90;14.57;;;10.30;99.90;;;11.54;100.00;101121.69;5054304;28;20292;-62
2021/11/20 02:29:20;;;;;;;19.73;14.60;;;10.40;99.90;;;11.31;100.00;101131.97;5054499;28;20231;-61
2021/11/20 02:31:54;;;;;;;18.20;14.40;;;10.40;99.90;;;11.23;100.00;101129.47;5053891;28;20243;-63
2021/11/20 02:34:29;;;;;;;17.90;13.20;;;10.40;99.90;;;11.15;100.00;101135.84;5054027;28;20647;-62
2021/11/20 02:36:58;;;;;;;16.93;13.33;;;10.40;99.90;;;11.11;100.00;101131.06;5054513;28;20192;-62
2021/11/20 02:39:31;;;;;;;18.00;13.93;;;10.30;99.90;;;11.25;100.00;101138.19;5053898;28;20252;-62
2021/11/20 02:42:04;;;;;;;17.43;14.07;;;10.30;99.90;;;11.15;100.00;101130.44;5053910;28;20676;-61
2021/11/20 02:44:34;;;;;;;18.37;12.97;;;10.30;99.90;;;11.38;100.00;101117.47;5054042;28;20182;-61
2021/11/20 02:47:08;;;;;;;17.00;12.77;;;10.30;99.90;;;11.39;100.00;101121.00;5054273;28;20212;-62
2021/11/20 02:49:37;;;;;;;16.90;12.03;;;10.40;99.90;;;11.20;100.00;101116.34;5054064;28;20195;-61
2021/11/20 02:52:09;;;;;;;16.30;13.53;;;10.30;99.90;;;11.24;100.00;101121.16;5053780;28;20289;-61
2021/11/20 02:54:37;;;;;;;14.10;11.73;;;10.30;99.90;;;11.25;100.00;101119.31;5053915;28;20243;-61
2021/11/20 02:57:10;;;;;;;15.00;11.70;;;10.30;99.90;;;11.12;100.00;101127.31;5053912;28;20205;-62
2021/11/20 02:59:40;;;;;;;17.40;12.73;;;10.30;99.90;;;11.25;100.00;101125.50;5053494;28;20229;-62
2021/11/20 03:02:13;;;;;;;14.13;11.50;;;10.30;99.90;;;11.22;100.00;101122.38;5053626;28;20317;-61
2021/11/20 03:04:43;;;;;;;16.10;11.43;;;10.30;99.90;;;11.22;100.00;101115.13;5053685;28;20186;-61
2021/11/20 03:07:12;;;;;;;14.97;12.03;;;10.30;99.90;;;11.15;100.00;101116.97;5053228;28;20211;-61
2021/11/20 03:09:42;;;;;;;15.33;11.43;;;10.30;99.90;;;11.07;100.00;101112.59;5053191;28;20205;-61
2021/11/20 03:12:13;;;;;;;12.67;11.03;;;10.30;99.90;;;11.18;100.00;101113.84;5053111;28;20311;-62
2021/11/20 03:14:42;;;;;;;15.33;11.90;;;10.30;99.90;;;11.07;100.00;101117.13;5053251;28;20686;-62
2021/11/20 03:17:12;;;;;;;16.37;12.47;;;10.30;99.90;;;11.03;100.00;101113.16;5053471;28;20292;-61
2021/11/20 03:19:45;;;;;;;14.80;11.07;;;10.30;99.90;;;11.16;100.00;101113.25;5053292;28;20682;-61
2021/11/20 03:22:19;;;;;;;14.77;11.30;;;10.20;99.90;;;11.25;100.00;101101.25;5053299;28;20567;-62
2021/11/20 03:24:49;;;;;;;15.57;11.83;;;10.30;99.90;;;11.19;100.00;101101.22;5053128;28;20636;-62
2021/11/20 03:27:18;;;;;;;13.23;11.53;;;10.30;99.90;;;11.26;100.00;101094.84;5053198;28;20281;-62
2021/11/20 03:29:47;;;;;;;13.97;10.73;;;10.30;99.90;;;11.33;100.00;101087.56;5053299;28;20205;-61
2021/11/20 03:32:19;;;;;;;14.03;10.90;;;10.30;99.90;;;11.26;100.00;101085.91;5052198;28;20229;-62
2021/11/20 03:34:48;;;;;;;12.80;11.13;;;10.30;99.90;;;11.38;100.00;101085.09;5053431;28;20208;-62
2021/11/20 03:37:22;;;;;;;13.50;10.93;;;10.30;99.90;;;11.20;100.00;101086.69;5052972;28;20327;-62
2021/11/20 03:39:52;;;;;;;16.70;11.23;;;10.30;99.90;;;11.32;100.00;101083.22;5053202;28;20212;-62
2021/11/20 03:42:22;;;;;;;14.13;11.23;;;10.40;99.90;;;11.32;100.00;101095.88;5052608;28;20221;-62
2021/11/20 03:44:51;;;;;;;14.47;11.30;;;10.40;99.90;;;11.11;100.00;101088.75;5052807;28;20221;-61
2021/11/20 03:47:21;;;;;;;14.37;10.67;;;10.30;99.90;;;11.05;100.00;101098.47;5053262;28;20279;-62
2021/11/20 03:49:50;;;;;;;15.27;11.37;;;10.20;99.90;;;11.18;100.00;101089.59;5052992;28;20284;-62
2021/11/20 03:52:19;;;;;;;11.87;10.40;;;10.20;99.90;;;11.15;100.00;101099.94;5052945;28;20237;-61
2021/11/20 03:54:48;;;;;;;13.87;10.40;;;10.30;99.90;;;11.45;100.00;101096.75;5052560;28;20233;-62
2021/11/20 03:57:17;;;;;;;16.87;12.00;;;10.30;99.90;;;11.16;100.00;101091.69;5052490;28;20668;-63
2021/11/20 03:59:45;;;;;;;13.10;10.87;;;10.30;99.90;;;11.14;100.00;101082.09;5052396;28;20209;-62
2021/11/20 04:02:13;;;;;;;14.43;11.03;;;10.20;99.90;;;11.27;100.00;101077.59;5052883;28;20228;-62
2021/11/20 04:04:43;;;;;;;13.03;10.93;;;10.30;99.90;;;11.19;100.00;101085.88;5052290;28;20201;-62
2021/11/20 04:07:11;;;;;;;13.53;10.90;;;10.30;99.90;;;11.12;100.00;101087.72;5052525;28;20228;-63
2021/11/20 04:09:40;;;;;;;14.97;11.53;;;10.20;99.90;;;10.91;100.00;101085.94;5052267;28;20213;-61
2021/11/20 04:12:10;;;;;;;12.70;10.70;;;10.20;99.90;;;10.86;100.00;101074.91;5052171;28;20283;-62
2021/11/20 04:14:38;;;;;;;14.53;11.07;;;10.10;99.90;;;11.02;100.00;101076.47;5052111;28;20293;-62
2021/11/20 04:17:07;;;;;;;17.67;11.33;;;10.10;99.90;;;10.92;100.00;101076.00;5052280;28;20280;-60
2021/11/20 04:19:35;;;;;;;13.90;10.73;;;10.10;99.90;;;10.90;100.00;101078.03;5052541;28;20208;-62
2021/11/20 04:22:06;;;;;;;13.67;10.97;;;10.10;99.90;;;10.79;100.00;101074.03;5051858;28;20340;-62
2021/11/20 04:24:35;;;;;;;16.40;10.63;;;10.10;99.90;;;11.07;100.00;101077.53;5051964;28;20222;-61
2021/11/20 04:27:04;;;;;;;16.03;11.23;;;10.10;99.90;;;10.85;100.00;101084.03;5052079;28;20291;-61
2021/11/20 04:29:32;;;;;;;13.80;10.63;;;10.10;99.90;;;11.07;100.00;101084.78;5052285;28;20206;-61
2021/11/20 04:32:00;;;;;;;13.53;10.40;;;10.10;99.90;;;11.14;100.00;101085.66;5051734;28;20202;-62
2021/11/20 04:34:29;;;;;;;13.90;11.33;;;10.20;99.90;;;11.09;100.00;101083.53;5052116;28;20205;-62
2021/11/20 04:36:58;;;;;;;14.53;10.73;;;10.20;99.90;;;11.21;100.00;101081.13;5051938;28;20296;-61
2021/11/20 04:39:27;;;;;;;13.57;11.63;;;10.10;99.90;;;10.97;100.00;101084.31;5052075;28;20199;-62
2021/11/20 04:41:56;;;;;;;15.73;11.73;;;10.20;99.90;;;11.00;100.00;101081.22;5051705;28;20311;-62
2021/11/20 04:44:25;;;;;;;14.70;11.20;;;10.10;99.90;;;10.95;100.00;101067.50;5051471;28;20799;-61
2021/11/20 04:46:53;;;;;;;14.73;11.53;;;10.10;99.90;;;11.17;100.00;101068.22;5051760;28;20292;-62
2021/11/20 04:49:21;;;;;;;13.70;11.40;;;10.20;99.90;;;11.07;100.00;101068.59;5051305;28;20244;-61
2021/11/20 04:51:49;;;;;;;13.90;11.10;;;10.20;99.90;;;11.11;100.00;101064.47;5051677;28;20200;-63
2021/11/20 04:54:18;;;;;;;14.27;11.63;;;10.20;99.90;;;11.06;100.00;101072.31;5051059;28;20707;-61
2021/11/20 04:56:48;;;;;;;15.50;12.33;;;10.20;99.90;;;11.06;100.00;101066.91;5051479;28;20399;-62
2021/11/20 04:59:16;;;;;;;15.53;12.33;;;10.20;99.90;;;11.02;100.00;101061.13;5051427;28;20201;-62
2021/11/20 05:01:45;;;;;;;15.47;12.30;;;10.10;99.90;;;11.03;100.00;101068.16;5051064;28;20668;-62
2021/11/20 05:04:13;;;;;;;16.37;12.20;;;10.20;99.90;;;11.09;100.00;101061.97;5051426;28;20205;-62
2021/11/20 05:06:42;;;;;;;16.70;12.67;;;10.20;99.90;;;11.13;100.00;101075.88;5051102;28;20293;-62
2021/11/20 05:09:10;;;;;;;15.03;11.80;;;10.20;99.90;;;10.97;100.00;101074.38;5050767;28;20649;-62
2021/11/20 05:11:38;;;;;;;15.37;11.73;;;10.20;99.90;;;11.35;100.00;101069.31;5051135;28;20314;-63
2021/11/20 05:14:08;;;;;;;16.20;12.30;;;10.30;99.90;;;11.38;100.00;101076.19;5051702;28;20228;-63
2021/11/20 05:16:38;;;;;;;17.77;12.73;;;10.30;99.90;;;11.26;100.00;101072.41;5051285;28;20229;-62
2021/11/20 05:19:07;;;;;;;16.07;13.13;;;10.30;99.90;;;11.27;100.00;101068.66;5051287;28;20211;-62
2021/11/20 05:21:36;;;;;;;18.07;12.53;;;10.30;99.90;;;11.31;100.00;101073.47;5051269;28;20201;-62
2021/11/20 05:24:05;;;;;;;16.53;13.20;;;10.30;99.90;;;11.24;100.00;101067.22;5050616;28;20565;-61
2021/11/20 05:26:33;;;;;;;17.77;13.20;;;10.30;99.90;;;11.34;100.00;101056.88;5051125;28;20201;-62
2021/11/20 05:29:06;;;;;;;15.10;12.70;;;10.30;99.90;;;11.43;100.00;101065.63;5051133;28;20236;-61
2021/11/20 05:31:37;;;;;;;15.87;12.50;;;10.40;99.90;;;11.25;100.00;101059.97;5051151;28;20456;-62
2021/11/20 05:34:08;;;;;;;16.10;12.90;;;10.40;99.90;;;11.33;100.00;101073.28;5051049;28;20550;-62
2021/11/20 05:36:37;;;;;;;14.73;12.77;;;10.40;99.90;;;11.14;100.00;101065.94;5051124;28;20220;-62
2021/11/20 05:39:08;;;;;;;18.03;12.67;;;10.30;99.90;;;11.23;100.00;101070.13;5050575;28;20730;-63
2021/11/20 05:41:37;;;;;;;19.20;13.40;;;10.30;99.90;;;11.24;100.00;101067.22;5050790;28;20181;-62
2021/11/20 05:44:08;;;;;;;17.73;13.23;;;10.30;99.90;;;11.39;100.00;101065.19;5050850;28;20283;-61
2021/11/20 05:46:38;;;;;;;16.10;13.07;;;10.40;99.90;;;11.39;100.00;101061.66;5050971;28;20292;-61
2021/11/20 05:49:08;;;;;;;17.00;13.30;;;10.40;99.90;;;11.31;100.00;101053.75;5050910;28;20253;-63
2021/11/20 05:51:37;;;;;;;19.17;13.63;;;10.40;99.90;;;11.22;100.00;101058.50;5050803;28;20516;-62
2021/11/20 05:54:06;;;;;;;19.83;14.23;;;10.40;99.90;;;11.26;100.00;101058.94;5050435;28;20197;-62
2021/11/20 05:56:35;;;;;;;15.77;13.50;;;10.30;99.90;;;11.21;100.00;101056.00;5053729;28;20552;-62
2021/11/20 05:59:25;;;;;;;19.33;13.57;;;10.40;99.90;;;11.25;100.00;101055.38;5054910;28;20186;-63
2021/11/20 06:01:56;;;;;;;16.37;13.93;;;10.40;99.90;;;11.11;100.00;101058.25;5054821;28;20208;-62
2021/11/20 06:04:26;;;;;;;18.57;13.37;;;10.30;99.90;;;11.45;100.00;101056.28;5054641;28;20304;-61
2021/11/20 06:06:54;;;;;;;19.47;13.67;;;10.40;99.90;;;11.50;100.00;101061.91;5054917;28;20224;-61
2021/11/20 06:09:23;;;;;;;21.53;14.97;;;10.40;99.90;;;11.49;100.00;101070.19;5054531;28;20629;-62
2021/11/20 06:11:51;;;;;;;18.20;14.23;;;10.50;99.90;;;11.32;100.00;101066.19;5054346;28;20243;-62
2021/11/20 06:14:19;;;;;;;17.93;14.20;;;10.50;99.90;;;11.45;100.00;101068.97;5054398;28;20233;-62
2021/11/20 06:16:48;;;;;;;21.17;14.03;;;10.50;99.90;;;11.59;100.00;101067.94;5054592;28;20211;-62
2021/11/20 06:19:18;;;;;;;20.77;14.17;;;10.50;99.90;;;11.40;100.00;101069.56;5054532;28;20205;-62
2021/11/20 06:21:46;;;;;;;19.90;14.60;;;10.50;99.90;;;11.36;100.00;101068.31;5054113;28;20201;-62
2021/11/20 06:24:15;;;;;;;18.57;13.63;;;10.40;99.90;;;11.27;100.00;101065.97;5034245;28;20220;-62
2021/11/20 06:26:43;;;;;;;19.77;14.47;;;10.40;99.90;;;11.32;100.00;101077.84;5034129;28;20293;-62
2021/11/20 06:29:12;;;;;;;19.50;14.90;;;10.40;99.90;;;11.42;100.00;101072.03;5034011;28;20292;-62
2021/11/20 06:31:41;;;;;;;20.33;13.17;;;10.40;99.90;;;11.23;100.00;101073.63;5034209;28;20202;-61
2021/11/20 06:34:09;;;;;;;21.60;14.27;;;10.40;99.90;;;11.37;100.00;101079.91;5034208;28;20202;-62
2021/11/20 06:36:39;;;;;;;20.97;14.37;;;10.40;99.90;;;11.29;100.00;101077.41;5034238;28;20206;-62
2021/11/20 06:39:07;;;;;;;19.67;14.53;;;10.30;99.90;;;11.25;100.00;101070.75;5033598;28;20622;-62
2021/11/20 06:41:36;;;;;;;20.30;14.10;;;10.30;99.90;;;11.16;100.00;101088.13;5034282;28;20202;-62
2021/11/20 06:44:05;;;;;;;23.10;15.03;;;10.30;99.90;;;11.27;100.00;101080.31;5033628;28;20218;-63
2021/11/20 06:46:34;;;;;;;20.53;14.47;;;10.40;99.90;;;11.40;100.00;101069.56;5033895;28;20237;-63
2021/11/20 06:49:05;;;;;;;20.90;14.87;;;10.40;99.90;;;11.41;100.00;101081.19;5033853;28;20575;-62
2021/11/20 06:51:33;;;;;;;18.33;14.17;;;10.40;99.90;;;11.43;100.00;101087.22;5033544;28;20617;-64
2021/11/20 06:54:03;;;;;;;20.10;14.60;;;10.40;99.90;;;11.25;100.00;101090.44;5033431;28;20245;-62
2021/11/20 06:56:43;;;;;;;19.50;14.63;;;10.40;99.90;;;11.27;100.00;101088.41;5034728;28;20193;-62
2021/11/20 07:00:25;;;;;;;20.87;15.83;;;10.40;99.90;;;11.24;100.00;101093.34;5034410;28;20632;-62
2021/11/20 07:02:06;;;;;;;19.70;15.80;;;10.40;99.90;;;11.32;100.00;101085.91;5034255;28;20297;-65
2021/11/20 07:04:35;;;;;;;21.37;14.97;;;10.40;99.90;;;11.40;100.00;101083.03;5034316;28;20222;-61
2021/11/20 07:07:09;;;;;;;20.20;15.83;;;10.40;99.90;;;11.34;100.00;101085.72;5033101;28;20206;-61
2021/11/20 07:09:38;;;;;;;19.93;15.10;;;10.40;99.90;;;11.26;100.00;101091.28;5034356;28;20179;-62
2021/11/20 07:12:08;;;;;;;21.23;15.57;;;10.40;99.90;;;11.29;100.00;101089.03;5034051;28;20237;-62
2021/11/20 07:14:36;;;;;;;21.43;16.57;;;10.40;99.90;;;11.23;100.00;101091.69;5033991;28;20241;-62
2021/11/20 07:17:05;;;;;;;22.30;16.53;;;10.40;99.90;;;11.29;100.00;101091.72;5034046;28;20281;-62
2021/11/20 07:19:33;;;;;;;21.93;16.80;;;10.40;99.90;;;11.31;100.00;101091.53;5034249;28;20202;-62
2021/11/20 07:22:01;;;;;;;21.93;15.73;;;10.40;99.90;;;11.35;100.00;101096.31;5035978;28;20292;-63
2021/11/20 07:24:30;;;;;;;20.43;14.77;;;10.40;99.90;;;11.32;100.00;101094.00;5053870;28;20221;-63
2021/11/20 07:27:00;;;;;;;21.23;15.87;;;10.40;99.90;;;11.44;100.00;101088.88;5053925;28;20295;-61
2021/11/20 07:29:28;;;;;;;21.87;15.60;;;10.40;99.90;;;11.54;100.00;101098.25;5053777;28;20197;-63
2021/11/20 07:31:56;;;;;;;21.60;15.63;;;10.50;99.90;;;11.46;100.00;101093.03;5053888;28;20300;-63
2021/11/20 07:34:26;;;;;;;21.67;15.83;;;10.50;99.90;;;11.51;100.00;101095.13;5053931;28;20198;-62
2021/11/20 07:36:59;;;;;;;24.53;15.73;;;10.50;99.90;;;11.40;100.00;101090.31;5053777;28;20201;-61
2021/11/20 07:39:28;;;;;;;20.40;15.13;;;10.50;99.90;;;11.52;100.00;101086.81;5052979;28;20205;-61
2021/11/20 07:41:57;;;;;;;21.37;15.87;;;10.50;99.90;;;11.60;100.00;101083.94;5053415;28;20780;-61
2021/11/20 07:44:28;;;;;;;21.70;16.30;;;10.50;99.90;;;11.49;100.00;101084.53;5053658;28;20543;-64
2021/11/20 07:46:56;;;;;;;18.53;14.03;;;10.50;99.90;;;11.51;100.00;101081.63;5053739;28;20621;-60
2021/11/20 07:49:25;;;;;;;20.93;14.43;;;10.60;99.90;;;11.52;100.00;101088.69;5053610;28;20205;-61
2021/11/20 07:51:53;;;;;;;20.50;15.17;;;10.50;99.90;;;11.67;100.00;101086.72;5053716;28;20190;-63
2021/11/20 07:54:22;;;;;;;21.00;15.27;;;10.50;99.90;;;11.70;100.00;101089.81;5053530;28;20295;-62
2021/11/20 07:56:50;;;;;;;19.87;14.83;;;10.60;99.90;;;11.47;100.00;101085.75;5053517;28;20209;-62
2021/11/20 07:59:19;;;;;;;20.53;15.57;;;10.60;99.90;;;11.47;100.00;101075.81;5053688;28;20267;-61
2021/11/20 08:01:48;;;;;;;21.50;15.87;;;10.50;99.90;;;11.39;100.00;101077.84;5053481;28;20283;-61
2021/11/20 08:04:17;;;;;;;20.83;16.47;;;10.50;99.90;;;11.33;100.00;101074.09;5053094;28;20225;-63
2021/11/20 08:06:46;;;;;;;21.27;14.23;;;10.40;99.90;;;11.21;100.00;101081.13;5052526;28;20205;-61
2021/11/20 08:09:15;;;;;;;21.47;15.03;;;10.40;99.90;;;11.42;100.00;101080.13;5051876;28;20233;-61
2021/11/20 08:11:43;;;;;;;19.63;14.50;;;10.40;99.90;;;11.27;100.00;101080.31;5051779;28;20324;-62
2021/11/20 08:14:12;;;;;;;19.50;13.77;;;10.40;99.90;;;11.40;100.00;101069.56;5051805;28;20249;-60
2021/11/20 08:16:43;;;;;;;20.47;14.13;;;10.40;99.90;;;11.28;100.00;101070.34;5051745;28;20660;-64
2021/11/20 08:19:13;;;;;;;19.13;13.83;;;10.40;99.90;;;11.57;100.00;101070.03;5051770;28;20190;-61
2021/11/20 08:21:41;;;;;;;19.73;13.97;;;10.50;99.90;;;11.30;100.00;101069.09;5052123;28;20606;-61
2021/11/20 08:24:10;;;;;;;20.40;14.50;;;10.50;99.90;;;11.35;100.00;101066.63;5051500;28;20225;-63
2021/11/20 08:26:42;;;;;;;19.53;14.27;;;10.40;99.90;;;11.55;100.00;101064.81;5051839;28;20756;-62
2021/11/20 08:29:15;;;;;;;22.30;14.67;;;10.50;99.90;;;11.37;100.00;101059.16;5052774;28;20225;-63
2021/11/20 08:31:46;;;;;;;20.27;14.17;;;10.50;99.90;;;11.56;100.00;101063.81;5052908;28;20213;-62
2021/11/20 08:34:18;;;;;;;19.50;14.77;;;10.50;99.90;;;11.40;100.00;101061.47;5052583;28;20197;-62
2021/11/20 08:36:47;;;;;;;24.33;15.60;;;10.50;99.90;;;11.44;100.00;101060.03;5051227;28;20651;-62
2021/11/20 08:39:19;;;;;;;21.63;16.07;;;10.50;99.90;;;11.62;100.00;101056.75;5052286;28;20201;-62
2021/11/20 08:41:49;;;;;;;23.90;16.23;;;10.60;99.90;;;11.43;100.00;101052.97;5052685;28;20189;-61
2021/11/20 08:44:17;;;;;;;20.80;15.90;;;10.60;99.90;;;11.46;100.00;101057.13;5052515;28;20209;-61
2021/11/20 08:46:47;;;;;;;21.50;15.47;;;10.50;99.90;;;11.42;100.00;101056.69;5052590;28;20296;-65
2021/11/20 08:49:18;;;;;;;21.60;15.33;;;10.50;99.90;;;11.50;100.00;101053.00;5052935;28;20204;-61
2021/11/20 08:51:48;;;;;;;22.63;14.93;;;10.60;99.90;;;11.55;100.00;101045.94;5052828;28;20186;-64
2021/11/20 08:54:17;;;;;;;22.83;15.53;;;10.50;99.90;;;11.52;100.00;101046.34;5052361;28;20193;-61
2021/11/20 08:56:48;;;;;;;18.27;14.07;;;10.60;99.90;;;11.64;100.00;101044.75;5052518;28;20237;-60
2021/11/20 08:59:22;;;;;;;19.93;15.47;;;10.60;99.90;;;11.72;100.00;101031.06;5052130;28;20221;-61
2021/11/20 09:01:56;;;;;;;22.60;15.97;;;10.60;99.90;;;11.73;100.00;101034.59;5052524;28;20219;-61
2021/11/20 09:04:39;;;;;;;21.37;15.97;;;10.70;99.90;;;11.62;100.00;101027.88;5052206;28;20572;-63
2021/11/20 09:07:14;;;;;;;22.67;16.63;;;10.60;99.90;;;11.65;100.00;101034.78;5051949;28;20189;-61
2021/11/20 09:09:50;;;;;;;19.27;14.83;;;10.60;99.90;;;11.69;100.00;101033.31;5051913;28;20719;-62
2021/11/20 09:12:27;;;;;;;21.47;15.17;;;10.70;99.90;;;11.71;100.00;101029.41;5051382;28;20293;-62
2021/11/20 09:15:00;;;;;;;22.27;15.20;;;10.70;99.90;;;11.69;100.00;101030.63;5052253;28;20228;-62
2021/11/20 09:17:29;;;;;;;20.90;14.63;;;10.70;99.90;;;11.83;100.00;101035.00;5050636;28;20289;-62
2021/11/20 09:19:59;;;;;;;21.07;14.63;;;10.70;99.90;;;11.76;100.00;101031.47;5051983;28;20292;-62
2021/11/20 09:22:27;;;;;;;19.97;14.70;;;10.70;99.90;;;11.73;100.00;101031.88;5046538;28;20240;-64
2021/11/20 09:24:55;;;;;;;19.40;13.70;;;10.70;99.90;;;11.98;100.00;101036.50;5031435;28;20796;-62
2021/11/20 09:27:45;;;;;;;17.47;13.77;;;10.80;99.90;;;12.09;100.00;101033.16;5031785;28;20194;-61
2021/11/20 09:30:17;;;;;;;18.13;13.97;;;10.80;99.90;;;12.00;100.00;101033.56;5031339;28;20525;-62
2021/11/20 09:32:46;;;;;;;18.87;13.77;;;10.90;99.90;;;11.79;100.00;101026.50;5031662;28;20222;-61
2021/11/20 09:35:16;;;;;;;20.67;14.47;;;10.90;99.90;;;11.80;100.00;101020.06;5031270;28;20346;-62
2021/11/20 09:37:44;;;;;;;23.23;15.27;;;10.80;99.90;;;11.84;100.00;101015.91;5031239;28;20693;-62
2021/11/20 09:40:14;;;;;;;20.80;16.20;;;10.90;99.90;;;11.98;100.00;101019.44;5031624;28;20650;-62
2021/11/20 09:42:47;;;;;;;21.13;14.63;;;10.80;99.90;;;11.96;100.00;101016.97;5031470;28;20269;-61
2021/11/20 09:45:19;;;;;;;22.77;16.80;;;10.80;99.90;;;11.95;100.00;101019.88;5031385;28;20241;-61
2021/11/20 09:47:53;;;;;;;22.43;15.70;;;10.90;99.90;;;11.78;100.00;101011.34;5031190;28;20290;-61
2021/11/20 09:50:29;;;;;;;25.00;17.10;;;10.90;99.90;;;11.88;100.00;101008.22;5031484;28;20276;-62
2021/11/20 09:52:59;;;;;;;20.70;15.57;;;10.80;99.90;;;11.94;100.00;101007.41;5031440;28;20543;-62
2021/11/20 09:55:32;;;;;;;20.80;15.33;;;10.90;99.90;;;11.96;100.00;101008.00;5031469;28;20296;-62
2021/11/20 09:58:11;;;;;;;20.13;15.90;;;10.90;99.90;;;12.03;100.00;101006.16;5031150;28;20313;-66
2021/11/20 10:01:22;;;;;;;19.03;14.53;;;11.00;99.90;;;11.89;100.00;100993.72;5031427;28;20229;-62
2021/11/20 10:04:07;;;;;;;20.60;15.43;;;10.90;99.90;;;11.96;100.00;100994.50;5031441;28;20182;-61
2021/11/20 10:06:40;;;;;;;21.63;14.70;;;10.90;99.90;;;11.97;100.00;100990.78;5031321;28;20221;-62
2021/11/20 10:09:25;;;;;;;17.17;13.47;;;10.90;99.90;;;11.89;100.00;100986.41;5031252;28;20306;-62